Time;durP1;ratioP1;P1;durP2;ratioP2;P2;SDS_P1;SDS_P2;PMS_P1;PMS_P2;Temp;Humidity;BMP_temperature;BMP_pressure;BME280_temperature;BME280_humidity;BME280_pressure;Samples;Min_cycle;Max_cycle;Signal;HPM_P1;HPM_P2
2021/01/16 00:01:00;;;;;;;6.40;3.30;;;;;;;-3.93;90.52;99963.36;1761831;81;21189;-68
2021/01/16 00:03:27;;;;;;;9.20;3.45;;;;;;;-3.91;90.53;99959.14;1766645;79;21606;-68
2021/01/16 00:06:00;;;;;;;3.92;2.37;;;;;;;-3.92;90.57;99947.23;1745634;81;21557;-68
2021/01/16 00:08:28;;;;;;;4.28;2.70;;;;;;;-3.88;90.57;99954.08;1757736;81;21202;-67
2021/01/16 00:10:58;;;;;;;4.15;2.08;;;;;;;-3.88;90.59;99945.16;1765918;79;21081;-67
2021/01/16 00:16:08;;;;;;;3.77;2.45;;;;;;;-3.77;90.60;99947.02;1864664;76;22715;-70
2021/01/16 00:18:35;;;;;;;;;;;;;;;-3.82;90.52;99940.13;1854263;77;21076;-70
2021/01/16 00:21:04;;;;;;;5.83;2.08;;;;;;;-3.78;90.56;99940.17;1825756;77;21190;-70
2021/01/16 00:23:31;;;;;;;5.50;2.25;;;;;;;-3.76;90.57;99933.41;1848592;77;21736;-70
2021/01/16 00:26:00;;;;;;;5.50;2.60;;;;;;;-3.73;90.56;99939.83;1854110;76;21598;-69
2021/01/16 00:28:31;;;;;;;5.47;2.35;;;;;;;-3.74;90.51;99940.25;1846775;77;21084;-71
2021/01/16 00:31:00;;;;;;;2.50;1.90;;;;;;;-3.71;90.54;99938.16;1840813;77;21538;-70
2021/01/16 00:33:32;;;;;;;5.62;3.15;;;;;;;-3.70;90.48;99937.31;1844133;77;21188;-70
2021/01/16 00:36:02;;;;;;;5.55;3.08;;;;;;;-3.68;90.45;99938.20;1838818;76;21594;-69
2021/01/16 00:38:33;;;;;;;7.33;3.15;;;;;;;-3.69;90.47;99931.39;1843239;77;20977;-70
2021/01/16 00:41:00;;;;;;;5.20;2.65;;;;;;;-3.68;90.46;99928.00;1830765;77;21418;-69
2021/01/16 00:43:27;;;;;;;7.40;3.65;;;;;;;-3.68;90.45;99929.27;1845685;77;21084;-70
2021/01/16 00:45:54;;;;;;;6.67;3.47;;;;;;;-3.68;90.46;99926.72;1829904;77;21264;-70
2021/01/16 00:48:25;;;;;;;3.92;2.87;;;;;;;-3.68;90.46;99928.00;1843698;77;21572;-69
2021/01/16 00:50:55;;;;;;;4.92;2.87;;;;;;;-3.68;90.42;99926.72;1846578;76;21135;-69
2021/01/16 00:53:23;;;;;;;4.95;3.08;;;;;;;-3.69;90.42;99923.73;1799994;78;21008;-69
2021/01/16 00:55:52;;;;;;;4.10;3.25;;;;;;;-3.68;90.42;99922.89;1775785;80;20949;-70
2021/01/16 00:58:21;;;;;;;5.85;2.80;;;;;;;-3.68;90.42;99922.89;1783010;80;22384;-70
2021/01/16 01:00:50;;;;;;;3.27;2.22;;;;;;;-3.68;90.37;99917.79;1802848;78;21068;-70
2021/01/16 01:03:20;;;;;;;4.85;2.70;;;;;;;-3.67;90.39;99916.94;1779735;80;21021;-69
2021/01/16 01:05:48;;;;;;;4.55;2.60;;;;;;;-3.69;90.35;99920.77;1811561;79;21104;-69
2021/01/16 01:08:15;;;;;;;5.30;2.65;;;;;;;-3.67;90.34;99914.39;1775105;80;21319;-69
2021/01/16 01:10:47;;;;;;;3.95;2.40;;;;;;;-3.69;90.23;99919.48;1768921;80;22184;-70
2021/01/16 01:13:15;;;;;;;5.62;2.58;;;;;;;-3.73;90.28;99919.41;1744786;80;21095;-70
2021/01/16 01:15:42;;;;;;;6.28;2.30;;;;;;;-3.77;90.28;99917.67;1775968;79;21052;-70
2021/01/16 01:18:09;;;;;;;4.00;2.27;;;;;;;-3.78;90.32;99918.48;1779924;79;21183;-69
2021/01/16 01:20:36;;;;;;;5.10;2.50;;;;;;;-3.79;90.35;99907.86;1788763;79;21206;-70
2021/01/16 01:23:03;;;;;;;4.50;2.40;;;;;;;-3.78;90.36;99914.66;1770090;80;21182;-70
2021/01/16 01:25:31;;;;;;;4.87;2.37;;;;;;;-3.81;90.32;99916.75;1781284;78;21037;-70
2021/01/16 01:28:00;;;;;;;;;;;;;;;-3.83;90.35;99906.54;1810361;78;21075;-71
2021/01/16 01:30:30;;;;;;;3.77;2.10;;;;;;;-3.86;90.35;99909.05;1780777;79;20190;-70
2021/01/16 01:32:58;;;;;;;4.12;1.80;;;;;;;-3.87;90.38;99907.31;1781504;79;21103;-69
2021/01/16 01:35:26;;;;;;;4.12;2.27;;;;;;;-3.89;90.34;99906.46;1783496;79;21143;-68
2021/01/16 01:37:56;;;;;;;5.05;2.45;;;;;;;-3.90;90.30;99891.97;1785289;79;21087;-69
2021/01/16 01:40:27;;;;;;;3.05;2.17;;;;;;;-3.91;90.28;99899.63;1782494;79;21890;-69
2021/01/16 01:42:56;;;;;;;2.02;1.82;;;;;;;-3.93;90.27;99897.03;1779692;79;21057;-69
2021/01/16 01:45:26;;;;;;;4.58;2.25;;;;;;;-3.93;90.28;99902.13;1777511;79;21147;-71
2021/01/16 01:47:54;;;;;;;5.08;2.20;;;;;;;-3.91;90.36;99897.92;1786749;79;22153;-69
2021/01/16 01:50:22;;;;;;;3.72;2.02;;;;;;;-3.90;90.26;99897.08;1781993;79;21665;-69
2021/01/16 01:52:50;;;;;;;4.45;2.08;;;;;;;-3.88;90.30;99895.41;1796406;79;21154;-69
2021/01/16 01:55:20;;;;;;;4.35;2.50;;;;;;;-3.86;90.32;99901.83;1782113;79;21016;-69
2021/01/16 01:57:53;;;;;;;6.10;2.30;;;;;;;-3.86;90.26;99893.74;1793324;79;21096;-68
2021/01/16 02:00:22;;;;;;;4.08;1.90;;;;;;;-3.85;90.28;99895.45;1790345;79;22081;-69
2021/01/16 02:02:50;;;;;;;4.20;2.58;;;;;;;-3.83;90.29;99893.78;1782407;79;21068;-69
2021/01/16 02:05:17;;;;;;;4.53;2.35;;;;;;;-3.84;90.25;99894.63;1770994;79;21001;-69
2021/01/16 02:07:46;;;;;;;3.90;2.70;;;;;;;-3.82;90.32;99891.66;1781885;79;21108;-69
2021/01/16 02:10:22;;;;;;;3.40;2.35;;;;;;;-3.79;90.37;99896.38;1779663;79;21147;-69
2021/01/16 02:12:55;;;;;;;3.83;2.47;;;;;;;-3.79;90.35;99893.82;1783269;79;21247;-69
2021/01/16 02:15:51;;;;;;;3.67;2.52;;;;;;;-3.77;90.31;99889.60;1779899;79;21087;-70
2021/01/16 02:18:35;;;;;;;3.75;2.55;;;;;;;-3.76;90.30;99887.05;1773657;79;21017;-69
2021/01/16 02:21:06;;;;;;;7.50;2.60;;;;;;;-3.73;90.32;99886.24;1792389;79;21226;-70
2021/01/16 02:24:06;;;;;;;4.62;2.25;;;;;;;-3.69;90.24;99886.73;1791776;79;21194;-69
2021/01/16 02:26:41;;;;;;;5.37;2.52;;;;;;;-3.64;90.32;99888.91;1795485;79;22068;-69
2021/01/16 02:29:10;;;;;;;4.53;2.35;;;;;;;-3.62;90.13;99883.41;1688407;83;21537;-69
2021/01/16 02:32:05;;;;;;;3.60;2.20;;;;;;;-3.63;90.12;99886.38;1693087;83;21176;-70
2021/01/16 02:34:40;;;;;;;3.37;1.80;;;;;;;-3.64;90.03;99878.70;1672842;84;21167;-69
2021/01/16 02:37:36;;;;;;;1.72;1.40;;;;;;;-3.67;89.94;99878.66;1682316;83;21191;-68
2021/01/16 02:40:20;;;;;;;4.20;1.87;;;;;;;-3.71;89.95;99876.92;1677407;84;22184;-69
2021/01/16 02:43:26;;;;;;;3.27;2.10;;;;;;;-3.74;90.02;99881.98;1674984;84;21038;-69
2021/01/16 02:46:40;;;;;;;4.65;1.80;;;;;;;-3.70;90.21;99874.80;1832631;76;22348;-68
2021/01/16 02:49:13;;;;;;;1.77;1.30;;;;;;;-3.73;90.22;99878.59;1799723;78;20984;-67
2021/01/16 02:52:07;;;;;;;1.62;1.35;;;;;;;-3.72;90.22;99877.77;1800832;78;21629;-67
2021/01/16 02:54:40;;;;;;;2.85;1.50;;;;;;;-3.71;90.20;99873.09;1796083;78;21028;-67
2021/01/16 02:57:11;;;;;;;2.27;1.22;;;;;;;-3.70;90.26;99872.24;1795791;78;20984;-68
2021/01/16 02:59:45;;;;;;;2.87;1.50;;;;;;;-3.67;90.29;99871.00;1796771;78;20992;-68
2021/01/16 03:02:15;;;;;;;1.87;1.47;;;;;;;-3.68;90.19;99868.88;1799425;78;20916;-68
2021/01/16 03:04:43;;;;;;;1.90;1.17;;;;;;;-3.65;90.20;99869.34;1800525;78;21204;-68
2021/01/16 03:07:13;;;;;;;2.42;1.12;;;;;;;-3.64;90.20;99872.31;1800906;78;21570;-69
2021/01/16 03:09:41;;;;;;;2.33;0.95;;;;;;;-3.68;90.02;99873.98;1797818;78;20992;-68
2021/01/16 03:12:10;;;;;;;2.65;1.40;;;;;;;-3.73;89.96;99865.83;1798564;78;21552;-68
2021/01/16 03:14:52;;;;;;;4.22;1.37;;;;;;;-3.76;90.07;99863.24;1807362;78;20973;-68
2021/01/16 03:17:52;;;;;;;1.50;1.25;;;;;;;-3.72;90.18;99867.56;1877125;76;22405;-67
2021/01/16 03:20:29;;;;;;;1.82;1.15;;;;;;;-3.76;90.25;99863.24;1844048;77;21008;-68
2021/01/16 03:22:58;;;;;;;;;;;;;;;-3.74;90.35;99857.33;1834155;76;21821;-67
2021/01/16 03:25:28;;;;;;;1.72;1.25;;;;;;;-3.71;90.47;99852.68;1849691;77;20697;-68
2021/01/16 03:27:57;;;;;;;1.32;1.20;;;;;;;-3.68;90.73;99856.54;1845167;77;21013;-67
2021/01/16 03:30:25;;;;;;;2.50;1.35;;;;;;;-3.65;90.68;99843.81;1848127;77;21083;-68
2021/01/16 03:32:53;;;;;;;2.60;1.50;;;;;;;-3.61;90.92;99843.88;1844647;77;21031;-68
2021/01/16 03:35:23;;;;;;;6.22;1.45;;;;;;;-3.59;90.82;99843.88;1836911;77;22165;-68
2021/01/16 03:37:50;;;;;;;1.98;1.25;;;;;;;-3.56;90.83;99838.81;1857304;77;20997;-68
2021/01/16 03:40:18;;;;;;;3.55;1.70;;;;;;;-3.51;90.83;99834.63;1844476;77;20941;-68
2021/01/16 03:42:45;;;;;;;2.02;1.20;;;;;;;-3.47;91.01;99837.66;1856681;77;20969;-68
2021/01/16 03:45:17;;;;;;;2.45;1.12;;;;;;;-3.44;91.08;99846.63;1835588;77;21198;-68
2021/01/16 03:47:46;;;;;;;2.42;1.52;;;;;;;-3.42;91.68;99836.02;1852620;77;21258;-68
2021/01/16 03:50:13;;;;;;;1.92;1.17;;;;;;;-3.41;91.97;99843.26;1858989;77;21008;-69
2021/01/16 03:52:41;;;;;;;3.65;1.57;;;;;;;-3.42;92.14;99844.95;1853168;77;21111;-68
2021/01/16 03:55:10;;;;;;;2.77;1.25;;;;;;;-3.42;92.05;99836.02;1847138;77;21143;-69
2021/01/16 03:57:38;;;;;;;2.27;0.93;;;;;;;-3.42;91.98;99829.64;1845495;77;21166;-67
2021/01/16 04:00:10;;;;;;;1.72;1.40;;;;;;;-3.42;92.12;99827.09;1856046;77;21629;-68
2021/01/16 04:02:38;;;;;;;2.35;1.00;;;;;;;-3.44;92.02;99821.09;1838923;77;21528;-69
2021/01/16 04:05:07;;;;;;;3.95;1.57;;;;;;;-3.44;91.83;99821.09;1853145;77;20985;-68
2021/01/16 04:07:34;;;;;;;2.08;1.27;;;;;;;-3.42;91.83;99827.09;1842510;77;21032;-67
2021/01/16 04:10:03;;;;;;;;;;;;;;;-3.39;91.85;99826.23;1848285;77;21003;-68
2021/01/16 04:12:30;;;;;;;2.33;1.40;;;;;;;-3.38;92.11;99824.98;1836415;77;21212;-67
2021/01/16 04:15:00;;;;;;;3.52;0.80;;;;;;;-3.37;91.92;99819.03;1847986;77;21559;-68
2021/01/16 04:17:26;;;;;;;1.00;0.70;;;;;;;-3.35;92.20;99824.59;1849294;77;21107;-67
2021/01/16 04:19:53;;;;;;;1.20;0.98;;;;;;;-3.33;92.18;99826.33;1851176;77;20985;-68
2021/01/16 04:22:20;;;;;;;1.70;1.10;;;;;;;-3.30;92.14;99824.23;1850223;77;21657;-67
2021/01/16 04:24:47;;;;;;;1.57;1.00;;;;;;;-3.29;92.28;99814.44;1856774;77;22753;-68
2021/01/16 04:27:14;;;;;;;2.75;1.57;;;;;;;-3.24;92.10;99823.00;1851298;77;24375;-68
2021/01/16 04:29:41;;;;;;;1.60;1.02;;;;;;;-3.24;92.01;99820.45;1840792;77;21055;-68
2021/01/16 04:32:08;;;;;;;2.35;1.57;;;;;;;-3.24;91.91;99811.52;1845093;77;21115;-69
2021/01/16 04:34:35;;;;;;;2.83;1.52;;;;;;;-3.22;91.83;99813.64;1841638;77;21131;-68
2021/01/16 04:37:02;;;;;;;1.90;1.10;;;;;;;-3.24;91.80;99817.90;1836566;77;21682;-68
2021/01/16 04:39:29;;;;;;;1.52;1.25;;;;;;;-3.22;91.74;99812.36;1844595;77;21582;-69
2021/01/16 04:41:58;;;;;;;3.00;1.37;;;;;;;-3.24;91.74;99812.79;1846261;77;21045;-69
2021/01/16 04:44:27;;;;;;;3.47;1.47;;;;;;;-3.24;91.65;99810.23;1843578;77;20982;-68
2021/01/16 04:46:57;;;;;;;3.67;1.90;;;;;;;-3.23;91.57;99809.38;1834112;77;20979;-68
2021/01/16 04:49:25;;;;;;;2.77;1.30;;;;;;;-3.26;91.49;99808.08;1848623;77;21554;-68
2021/01/16 04:51:54;;;;;;;3.00;1.65;;;;;;;-3.26;91.44;99811.91;1847691;77;21088;-68
2021/01/16 04:54:23;;;;;;;3.27;1.70;;;;;;;-3.28;91.32;99803.37;1844488;77;21092;-68
2021/01/16 04:56:50;;;;;;;5.12;1.45;;;;;;;-3.30;91.35;99803.80;1855824;76;21013;-68
2021/01/16 04:59:19;;;;;;;2.35;1.32;;;;;;;-3.33;91.26;99799.91;1856125;77;21350;-68
2021/01/16 05:01:46;;;;;;;2.27;1.07;;;;;;;-3.34;91.16;99805.87;1840675;77;21200;-67
2021/01/16 05:04:16;;;;;;;0.78;0.70;;;;;;;-3.39;91.19;99801.59;1786192;79;21199;-67
2021/01/16 05:06:47;;;;;;;2.42;1.22;;;;;;;-3.40;91.22;99799.85;1812290;78;21128;-68
2021/01/16 05:09:16;;;;;;;2.33;0.98;;;;;;;-3.42;91.25;99799.40;1790900;78;21021;-68
2021/01/16 05:12:05;;;;;;;2.33;0.82;;;;;;;-3.45;91.23;99801.50;1762719;80;21032;-69
2021/01/16 05:14:37;;;;;;;2.60;0.80;;;;;;;-3.45;91.24;99798.94;1797475;78;21650;-68
2021/01/16 05:17:06;;;;;;;3.42;1.47;;;;;;;-3.50;91.31;99798.06;1789483;78;21226;-69
2021/01/16 05:19:34;;;;;;;2.05;1.22;;;;;;;-3.53;91.36;99798.43;1760241;81;21123;-68
2021/01/16 05:22:02;;;;;;;2.25;1.15;;;;;;;-3.55;91.35;99794.59;1763954;81;21068;-68
2021/01/16 05:24:29;;;;;;;3.47;1.40;;;;;;;-3.56;91.30;99790.31;1764152;81;21136;-68
2021/01/16 05:27:07;;;;;;;1.85;1.20;;;;;;;-3.57;91.30;99791.17;1757375;81;21645;-67
2021/01/16 05:29:36;;;;;;;1.72;1.27;;;;;;;-3.59;91.29;99794.11;1758447;81;21622;-68
2021/01/16 05:32:06;;;;;;;2.05;1.35;;;;;;;-3.60;91.31;99786.03;1753402;81;21001;-68
2021/01/16 05:34:34;;;;;;;2.12;1.15;;;;;;;-3.61;91.31;99782.63;1744373;81;21147;-67
2021/01/16 05:37:02;;;;;;;2.05;1.27;;;;;;;-3.63;91.31;99784.73;1755478;81;21261;-68
2021/01/16 05:39:32;;;;;;;2.27;1.27;;;;;;;-3.65;91.33;99782.57;1735732;81;21726;-67
2021/01/16 05:42:07;;;;;;;3.67;1.57;;;;;;;-3.67;91.32;99786.79;1744748;81;21179;-69
2021/01/16 05:44:35;;;;;;;2.10;1.30;;;;;;;-3.68;91.39;99778.71;1755423;81;21135;-68
2021/01/16 05:47:04;;;;;;;2.12;1.30;;;;;;;-3.69;91.39;99775.73;1757164;81;21124;-68
2021/01/16 05:49:33;;;;;;;1.87;1.10;;;;;;;-3.72;91.39;99773.16;1745308;81;21151;-67
2021/01/16 05:52:08;;;;;;;2.45;1.20;;;;;;;-3.74;91.44;99770.99;1758918;81;21204;-68
2021/01/16 05:54:35;;;;;;;2.95;1.50;;;;;;;-3.74;91.47;99769.72;1732491;81;21187;-69
2021/01/16 05:57:06;;;;;;;2.20;1.40;;;;;;;-3.76;91.50;99767.56;1761276;81;21546;-67
2021/01/16 05:59:37;;;;;;;2.00;1.60;;;;;;;-3.77;91.54;99767.98;1755178;81;20993;-68
2021/01/16 06:02:05;;;;;;;2.45;1.52;;;;;;;-3.77;91.66;99769.27;1755048;81;21164;-67
2021/01/16 06:04:33;;;;;;;1.52;1.15;;;;;;;-3.77;91.56;99763.30;1752474;81;21220;-68
2021/01/16 06:07:07;;;;;;;2.35;1.60;;;;;;;-3.75;91.61;99771.81;1759644;81;21076;-69
2021/01/16 06:09:37;;;;;;;1.80;0.93;;;;;;;-3.77;91.56;99754.38;1753707;81;21566;-68
2021/01/16 06:12:06;;;;;;;1.80;1.27;;;;;;;-3.80;91.62;99756.89;1744983;81;21021;-69
2021/01/16 06:14:44;;;;;;;1.40;1.07;;;;;;;-3.83;91.58;99758.56;1754818;81;21566;-68
2021/01/16 06:17:13;;;;;;;2.37;1.60;;;;;;;-3.88;91.57;99755.10;1768794;79;22388;-68
2021/01/16 06:19:48;;;;;;;1.52;1.27;;;;;;;-3.88;91.59;99747.45;1771858;79;21795;-68
2021/01/16 06:22:18;;;;;;;2.17;1.47;;;;;;;-3.88;91.50;99751.70;1758344;81;20968;-68
2021/01/16 06:24:50;;;;;;;1.65;1.05;;;;;;;-3.92;91.29;99741.89;1763282;81;20970;-67
2021/01/16 06:27:26;;;;;;;4.47;1.75;;;;;;;-3.94;91.24;99741.43;1765198;80;21546;-67
2021/01/16 06:30:03;;;;;;;8.30;1.40;;;;;;;-3.96;91.35;99732.47;1756768;81;22083;-69
2021/01/16 06:32:30;;;;;;;4.33;1.75;;;;;;;-3.97;91.43;99737.58;1765850;79;21023;-68
2021/01/16 06:35:10;;;;;;;2.72;1.70;;;;;;;-3.98;91.38;99737.97;1765130;81;21547;-69
2021/01/16 06:37:49;;;;;;;2.92;1.80;;;;;;;-3.97;91.34;99740.98;1758562;81;21031;-67
2021/01/16 06:40:35;;;;;;;2.20;1.55;;;;;;;-3.97;91.32;99734.59;1749169;79;20979;-68
2021/01/16 06:43:11;;;;;;;1.75;1.45;;;;;;;-3.99;91.17;99729.89;1773885;80;22694;-67
2021/01/16 06:45:50;;;;;;;3.85;2.00;;;;;;;-3.96;91.08;99725.25;1883000;76;22144;-68
2021/01/16 06:48:19;;;;;;;4.08;1.90;;;;;;;-4.02;91.04;99713.28;1845609;77;21155;-68
2021/01/16 06:50:48;;;;;;;3.83;2.20;;;;;;;-4.03;91.06;99715.41;1847545;77;22550;-69
2021/01/16 06:53:26;;;;;;;4.92;2.62;;;;;;;-4.06;91.03;99724.30;1852239;77;21075;-67
2021/01/16 06:56:09;;;;;;;3.17;1.98;;;;;;;-4.08;91.03;99713.22;1850653;77;21499;-68
2021/01/16 06:58:42;;;;;;;3.72;2.12;;;;;;;-4.13;90.93;99716.12;1842788;76;20992;-67
2021/01/16 07:01:12;;;;;;;6.53;2.65;;;;;;;-4.21;90.86;99710.08;1848090;76;21119;-68
2021/01/16 07:03:48;;;;;;;4.78;2.75;;;;;;;-4.21;91.01;99708.80;1847009;77;21207;-68
2021/01/16 07:06:17;;;;;;;6.35;2.33;;;;;;;-4.23;90.97;99711.74;1846461;77;20953;-69
2021/01/16 07:08:49;;;;;;;4.05;2.55;;;;;;;-4.23;90.99;99709.19;1812895;78;21539;-69
2021/01/16 07:11:19;;;;;;;5.15;2.55;;;;;;;-4.24;90.99;99701.13;1758354;80;21542;-67
2021/01/16 07:13:46;;;;;;;6.78;2.22;;;;;;;-4.22;90.91;99709.65;1813596;78;21005;-68
2021/01/16 07:16:15;;;;;;;;;;;;;;;-4.22;90.82;99702.00;1756037;80;21205;-67
2021/01/16 07:18:44;;;;;;;2.55;1.62;;;;;;;-4.22;90.71;99697.75;1791016;78;20302;-70
2021/01/16 07:21:13;;;;;;;4.37;1.90;;;;;;;-4.23;90.62;99696.02;1775570;78;21059;-67
2021/01/16 07:23:42;;;;;;;4.22;2.05;;;;;;;-4.20;90.63;99704.13;1790624;78;21166;-68
2021/01/16 07:26:10;;;;;;;4.72;1.92;;;;;;;-4.21;90.40;99701.16;1816507;78;21163;-68
2021/01/16 07:28:40;;;;;;;4.65;2.45;;;;;;;-4.19;90.42;99689.28;1779147;80;21153;-69
2021/01/16 07:31:07;;;;;;;4.83;2.27;;;;;;;-4.16;90.38;99685.49;1777389;80;21087;-68
2021/01/16 07:33:34;;;;;;;4.67;2.27;;;;;;;-4.12;90.34;99688.50;1812394;78;21083;-67
2021/01/16 07:36:04;;;;;;;2.90;1.90;;;;;;;-4.10;90.52;99686.83;1771191;80;28841;-70
2021/01/16 07:38:34;;;;;;;6.10;2.30;;;;;;;-4.10;90.28;99686.83;1810467;78;21578;-67
2021/01/16 07:41:04;;;;;;;3.37;2.10;;;;;;;-4.10;90.32;99674.08;1792884;78;21200;-69
2021/01/16 07:43:49;;;;;;;4.75;2.40;;;;;;;-4.09;90.08;99668.13;1808802;78;21151;-68
2021/01/16 07:46:21;;;;;;;3.20;2.20;;;;;;;-4.08;90.21;99664.77;1817411;78;21827;-67
2021/01/16 07:48:54;;;;;;;2.47;1.70;;;;;;;-4.08;90.23;99657.11;1814275;78;20977;-69
2021/01/16 07:51:21;;;;;;;2.15;1.40;;;;;;;-4.06;90.28;99650.34;1787652;79;21614;-68
2021/01/16 07:53:55;;;;;;;2.77;2.10;;;;;;;-4.03;90.00;99647.83;1790787;79;21200;-67
2021/01/16 07:56:23;;;;;;;4.62;2.00;;;;;;;-4.00;90.38;99635.09;1788998;79;21665;-67
2021/01/16 07:59:14;;;;;;;3.87;2.02;;;;;;;-3.93;90.43;99631.75;1784661;79;21725;-68
2021/01/16 08:02:07;;;;;;;3.05;1.72;;;;;;;-3.86;90.51;99625.03;1791101;79;21627;-68
2021/01/16 08:05:10;;;;;;;2.10;1.57;;;;;;;-3.79;90.35;99620.83;1736728;80;21593;-68
2021/01/16 08:08:14;;;;;;;3.58;1.57;;;;;;;-3.74;90.35;99612.80;1798487;78;22554;-68
2021/01/16 08:10:43;;;;;;;2.40;1.55;;;;;;;-3.68;90.21;99617.95;1795575;78;21042;-67
2021/01/16 08:13:14;;;;;;;2.27;1.60;;;;;;;-3.69;90.12;99611.15;1799161;78;21148;-67
2021/01/16 08:15:43;;;;;;;2.22;1.42;;;;;;;-3.62;90.31;99605.23;1768494;79;21705;-67
2021/01/16 08:18:15;;;;;;;2.00;1.70;;;;;;;-3.56;90.24;99598.05;1789992;79;21582;-68
2021/01/16 08:20:52;;;;;;;2.90;1.50;;;;;;;-3.49;90.22;99604.49;1860946;76;22823;-69
2021/01/16 08:23:25;;;;;;;3.20;1.87;;;;;;;-3.48;90.19;99603.64;1846090;77;21013;-70
2021/01/16 08:25:55;;;;;;;2.67;1.75;;;;;;;-3.40;90.24;99598.59;1840449;77;21258;-68
2021/01/16 08:28:26;;;;;;;4.30;1.85;;;;;;;-3.32;90.22;99597.37;1844078;76;21024;-67
2021/01/16 08:30:54;;;;;;;6.47;1.80;;;;;;;-3.23;90.31;99594.45;1842250;77;21594;-68
2021/01/16 08:33:35;;;;;;;1.95;1.40;;;;;;;-3.17;90.21;99588.53;1843610;77;21594;-68
2021/01/16 08:36:27;;;;;;;5.87;1.98;;;;;;;-3.09;90.04;99583.05;1843117;77;21586;-68
2021/01/16 08:39:01;;;;;;;3.92;2.20;;;;;;;-3.05;90.00;99579.67;1702732;82;21224;-67
2021/01/16 08:41:28;;;;;;;4.72;2.15;;;;;;;-3.04;89.94;99572.86;1703480;82;21665;-68
2021/01/16 08:43:59;;;;;;;4.22;2.30;;;;;;;-3.05;89.73;99566.91;1703464;82;26208;-67
2021/01/16 08:46:35;;;;;;;2.77;2.02;;;;;;;-3.04;89.78;99563.49;1732456;81;21524;-68
2021/01/16 08:49:17;;;;;;;3.15;1.85;;;;;;;-2.98;90.07;99566.07;1707745;82;21202;-68
2021/01/16 08:51:52;;;;;;;4.08;1.98;;;;;;;-2.89;89.99;99559.30;1710213;82;21572;-69
2021/01/16 08:54:24;;;;;;;5.45;2.47;;;;;;;-2.83;89.80;99562.76;1731962;81;21096;-71
2021/01/16 08:56:56;;;;;;;4.72;2.70;;;;;;;-2.77;89.78;99560.65;1705459;84;21087;-68
2021/01/16 08:59:29;;;;;;;3.20;1.87;;;;;;;-2.81;89.38;99549.97;1689544;84;22176;-69
2021/01/16 09:02:09;;;;;;;4.12;2.40;;;;;;;-2.82;89.83;99548.27;1732650;81;21022;-70
2021/01/16 09:04:40;;;;;;;3.83;2.17;;;;;;;-2.82;90.48;99543.16;1733346;81;21209;-67
2021/01/16 09:07:23;;;;;;;3.87;2.10;;;;;;;-2.75;90.23;99539.77;1872099;74;22500;-70
2021/01/16 09:10:06;;;;;;;3.08;1.42;;;;;;;-2.72;90.78;99532.98;1843802;77;21024;-69
2021/01/16 09:12:35;;;;;;;2.40;1.42;;;;;;;-2.74;90.39;99526.16;1841709;75;21268;-69
2021/01/16 09:15:39;;;;;;;1.92;1.57;;;;;;;-2.70;91.11;99535.53;1846099;75;21093;-69
2021/01/16 09:18:15;;;;;;;3.75;1.77;;;;;;;-2.62;91.65;99528.73;1838878;75;21539;-70
2021/01/16 09:20:56;;;;;;;3.12;1.40;;;;;;;-2.50;91.83;99523.64;1851027;75;27757;-69
2021/01/16 09:23:32;;;;;;;4.87;1.77;;;;;;;-2.41;91.49;99516.84;1845005;75;21547;-67
2021/01/16 09:26:16;;;;;;;1.77;1.30;;;;;;;-2.30;91.89;99513.87;1818996;77;21004;-69
2021/01/16 09:29:00;;;;;;;2.37;1.57;;;;;;;-2.15;91.56;99517.75;1848391;77;21028;-68
2021/01/16 09:31:47;;;;;;;2.17;1.47;;;;;;;-2.18;90.90;99504.96;1845591;75;21052;-69
2021/01/16 09:34:20;;;;;;;3.27;1.90;;;;;;;-2.15;91.27;99507.52;1841264;76;21008;-69
2021/01/16 09:37:00;;;;;;;3.50;1.72;;;;;;;-2.16;91.06;99507.50;1842800;75;21177;-68
2021/01/16 09:39:30;;;;;;;4.78;2.05;;;;;;;-2.20;90.78;99501.54;1843578;75;21264;-67
2021/01/16 09:42:02;;;;;;;1.52;1.37;;;;;;;-2.18;91.20;99487.05;1843559;77;21218;-67
2021/01/16 09:44:50;;;;;;;1.75;1.20;;;;;;;-2.20;90.70;99501.54;1839470;77;21083;-68
2021/01/16 09:47:33;;;;;;;1.40;1.30;;;;;;;-2.13;90.51;99505.83;1839686;75;22218;-69
2021/01/16 09:50:21;;;;;;;2.20;1.35;;;;;;;-2.05;91.10;99503.24;1778615;78;21609;-68
2021/01/16 09:52:53;;;;;;;3.15;1.80;;;;;;;-2.03;91.41;99490.88;1803920;77;21166;-69
2021/01/16 09:55:31;;;;;;;4.20;1.70;;;;;;;-1.94;91.92;99477.66;1788116;78;21667;-68
2021/01/16 09:57:56;;;;;;;2.05;1.32;;;;;;;-1.83;91.88;99488.74;1788284;78;21062;-68
2021/01/16 10:00:35;;;;;;;2.70;1.37;;;;;;;-1.77;91.99;99478.48;1793745;78;21229;-67
2021/01/16 10:03:06;;;;;;;2.83;1.75;;;;;;;-1.86;90.99;99475.95;1783495;78;21250;-67
2021/01/16 10:05:37;;;;;;;4.28;1.75;;;;;;;-1.97;91.01;99464.88;1775206;79;21463;-68
2021/01/16 10:08:07;;;;;;;4.12;1.45;;;;;;;-1.91;91.58;99463.58;1759278;80;21000;-67
2021/01/16 10:10:49;;;;;;;3.72;1.80;;;;;;;-1.90;91.36;99457.63;1752173;79;21158;-67
2021/01/16 10:13:36;;;;;;;2.12;1.30;;;;;;;-1.84;91.51;99464.02;1756625;80;21672;-68
2021/01/16 10:16:15;;;;;;;2.08;1.30;;;;;;;-1.77;91.82;99445.22;1746962;81;21259;-68
2021/01/16 10:18:43;;;;;;;2.30;1.30;;;;;;;-1.77;91.06;99437.97;1757004;80;21636;-67
2021/01/16 10:21:13;;;;;;;3.27;1.90;;;;;;;-1.80;91.43;99434.98;1758875;81;21666;-69
2021/01/16 10:23:44;;;;;;;3.67;1.67;;;;;;;-1.80;91.50;99442.23;1745489;81;21033;-68
2021/01/16 10:26:17;;;;;;;3.10;1.60;;;;;;;-1.87;91.34;99425.63;1748310;81;21768;-69
2021/01/16 10:29:12;;;;;;;4.62;1.65;;;;;;;-1.87;91.72;99431.59;1754526;80;21025;-68
2021/01/16 10:31:40;;;;;;;2.52;1.62;;;;;;;-1.91;91.37;99423.92;1560897;90;21297;-69
2021/01/16 10:36:47;;;;;;;4.35;2.27;;;;;;;-1.87;91.99;99401.33;1827968;76;22784;-67
2021/01/16 10:39:16;;;;;;;2.20;1.45;;;;;;;-1.90;91.72;99392.38;1804630;78;21000;-68
2021/01/16 10:41:45;;;;;;;4.50;2.33;;;;;;;-1.88;91.94;99411.11;1801081;77;21004;-67
2021/01/16 10:44:17;;;;;;;3.35;1.80;;;;;;;-1.91;92.29;99391.93;1795061;78;21618;-67
2021/01/16 10:47:40;;;;;;;3.98;1.75;;;;;;;-1.86;92.20;99387.66;1725373;81;20988;-67
2021/01/16 10:50:14;;;;;;;3.52;2.12;;;;;;;-1.89;91.80;99378.72;1722907;83;21078;-67
2021/01/16 10:52:43;;;;;;;3.75;2.22;;;;;;;-1.89;91.98;99378.72;1724838;83;21800;-68
2021/01/16 10:55:12;;;;;;;3.65;1.85;;;;;;;-1.87;92.32;99373.17;1725777;81;21205;-68
2021/01/16 10:57:49;;;;;;;3.50;1.77;;;;;;;-1.81;92.36;99368.03;1724729;82;22348;-68
2021/01/16 11:00:20;;;;;;;4.42;2.40;;;;;;;-1.77;92.52;99370.99;1721623;81;21024;-67
2021/01/16 11:02:50;;;;;;;2.87;1.75;;;;;;;-1.77;92.18;99365.02;1721166;83;21186;-67
2021/01/16 11:05:41;;;;;;;4.30;2.22;;;;;;;-1.77;92.44;99358.20;1725890;81;21032;-68
2021/01/16 11:08:13;;;;;;;2.70;1.60;;;;;;;-1.79;92.31;99353.53;1760403;81;21271;-68
2021/01/16 11:10:47;;;;;;;3.72;1.65;;;;;;;-1.73;92.58;99349.66;1732448;79;21192;-68
2021/01/16 11:13:27;;;;;;;4.35;1.57;;;;;;;-1.68;92.74;99342.83;1724159;81;21175;-67
2021/01/16 11:16:16;;;;;;;3.67;2.08;;;;;;;-1.67;92.13;99341.95;1723860;81;21123;-68
2021/01/16 11:18:46;;;;;;;2.47;1.70;;;;;;;-1.67;92.22;99331.72;1724302;81;21179;-68
2021/01/16 11:21:39;;;;;;;2.65;1.50;;;;;;;-1.64;92.51;99327.86;1723705;82;21427;-68
2021/01/16 11:24:49;;;;;;;2.52;2.20;;;;;;;-1.62;92.44;99324.88;1732192;81;21212;-68
2021/01/16 11:27:30;;;;;;;2.12;1.60;;;;;;;-1.61;92.69;99316.33;1734073;81;21091;-67
2021/01/16 11:30:10;;;;;;;2.75;1.70;;;;;;;-1.59;92.94;99310.77;1727850;81;21226;-67
2021/01/16 11:32:38;;;;;;;4.85;2.15;;;;;;;-1.59;92.95;99312.06;1717375;81;21728;-68
2021/01/16 11:35:21;;;;;;;6.50;2.80;;;;;;;-1.58;92.96;99309.91;1720629;81;21316;-67
2021/01/16 11:37:54;;;;;;;3.05;1.20;;;;;;;-1.56;93.14;99297.55;1721966;81;21297;-70
2021/01/16 11:40:26;;;;;;;4.20;1.65;;;;;;;-1.53;93.15;99302.65;1721882;82;21222;-67
2021/01/16 11:43:07;;;;;;;2.95;1.60;;;;;;;-1.56;93.10;99300.11;1724064;81;21238;-69
2021/01/16 11:45:37;;;;;;;3.50;2.10;;;;;;;-1.51;93.27;99281.70;1724419;81;21174;-67
2021/01/16 11:48:08;;;;;;;5.17;2.02;;;;;;;-1.38;93.18;99285.47;1712184;81;21666;-70
2021/01/16 11:50:39;;;;;;;3.17;1.50;;;;;;;-1.22;92.99;99280.27;1694835;81;21201;-69
2021/01/16 11:53:15;;;;;;;1.98;1.20;;;;;;;-1.32;92.50;99289.70;1725701;81;21137;-69
2021/01/16 11:55:42;;;;;;;7.85;1.40;;;;;;;-1.38;92.78;99306.39;1722088;80;21221;-68
2021/01/16 11:58:11;;;;;;;4.65;1.98;;;;;;;-1.49;92.75;99331.20;1730191;81;21270;-69
2021/01/16 12:00:39;;;;;;;;;;;;;;;-1.58;92.93;99367.52;1727104;81;21290;-68
2021/01/16 12:03:06;;;;;;;;;;;;;;;-1.60;93.06;99367.97;1725385;81;20184;-68
2021/01/16 12:05:33;;;;;;;;;;;;;;;-1.62;93.20;99362.00;1723841;81;20477;-68
2021/01/16 12:08:02;;;;;;;;;;;;;;;-1.67;93.17;99348.36;1723401;81;20275;-67
2021/01/16 12:10:29;;;;;;;;;;;;;;;-1.66;93.36;99344.92;1742030;80;20315;-67